sensor_id;sensor_type;location;lat;lon;timestamp;P1;durP1;ratioP1;P2;durP2;ratioP2
79367;SDS011;68834;53.152;17.962;2023-04-06T00:00:21;72.80;;;25.30;;
79367;SDS011;68834;53.152;17.962;2023-04-06T00:03:08;59.70;;;23.40;;
79367;SDS011;68834;53.152;17.962;2023-04-06T00:05:35;59.80;;;21.60;;
79367;SDS011;68834;53.152;17.962;2023-04-06T00:08:02;52.00;;;21.90;;
79367;SDS011;68834;53.152;17.962;2023-04-06T00:10:29;39.30;;;17.70;;
79367;SDS011;68834;53.152;17.962;2023-04-06T00:12:55;39.70;;;13.80;;
79367;SDS011;68834;53.152;17.962;2023-04-06T00:15:23;34.10;;;15.00;;
79367;SDS011;68834;53.152;17.962;2023-04-06T00:17:50;36.40;;;14.20;;
79367;SDS011;68834;53.152;17.962;2023-04-06T00:20:17;35.00;;;15.40;;
79367;SDS011;68834;53.152;17.962;2023-04-06T00:22:44;30.00;;;13.90;;
79367;SDS011;68834;53.152;17.962;2023-04-06T00:25:11;29.80;;;14.30;;
79367;SDS011;68834;53.152;17.962;2023-04-06T00:27:38;23.10;;;12.80;;
79367;SDS011;68834;53.152;17.962;2023-04-06T00:30:06;21.80;;;10.80;;
79367;SDS011;68834;53.152;17.962;2023-04-06T00:32:34;22.70;;;11.90;;
79367;SDS011;68834;53.152;17.962;2023-04-06T00:35:02;30.70;;;13.90;;
79367;SDS011;68834;53.152;17.962;2023-04-06T00:37:30;29.30;;;13.50;;
79367;SDS011;68834;53.152;17.962;2023-04-06T00:39:57;26.90;;;13.10;;
79367;SDS011;68834;53.152;17.962;2023-04-06T00:42:24;30.90;;;14.80;;
79367;SDS011;68834;53.152;17.962;2023-04-06T00:44:54;36.20;;;16.90;;
79367;SDS011;68834;53.152;17.962;2023-04-06T00:47:22;61.00;;;29.40;;
79367;SDS011;68834;53.152;17.962;2023-04-06T00:49:52;63.10;;;29.10;;
79367;SDS011;68834;53.152;17.962;2023-04-06T00:52:20;60.40;;;26.60;;
79367;SDS011;68834;53.152;17.962;2023-04-06T00:54:48;59.40;;;22.60;;
79367;SDS011;68834;53.152;17.962;2023-04-06T00:57:16;50.00;;;19.40;;
79367;SDS011;68834;53.152;17.962;2023-04-06T00:59:44;51.90;;;21.50;;
79367;SDS011;68834;53.152;17.962;2023-04-06T01:02:12;45.00;;;17.20;;
79367;SDS011;68834;53.152;17.962;2023-04-06T01:04:43;35.60;;;14.80;;
79367;SDS011;68834;53.152;17.962;2023-04-06T01:07:16;37.10;;;15.00;;
79367;SDS011;68834;53.152;17.962;2023-04-06T01:09:52;32.30;;;13.40;;
79367;SDS011;68834;53.152;17.962;2023-04-06T01:12:21;31.60;;;13.90;;
79367;SDS011;68834;53.152;17.962;2023-04-06T01:14:49;20.60;;;11.30;;
79367;SDS011;68834;53.152;17.962;2023-04-06T01:17:16;23.80;;;10.90;;
79367;SDS011;68834;53.152;17.962;2023-04-06T01:19:43;25.60;;;11.60;;
79367;SDS011;68834;53.152;17.962;2023-04-06T01:22:15;21.80;;;10.90;;
79367;SDS011;68834;53.152;17.962;2023-04-06T01:24:50;21.10;;;10.00;;
79367;SDS011;68834;53.152;17.962;2023-04-06T01:27:22;20.40;;;9.90;;
79367;SDS011;68834;53.152;17.962;2023-04-06T01:30:01;19.40;;;9.10;;
79367;SDS011;68834;53.152;17.962;2023-04-06T01:32:48;18.20;;;9.10;;
79367;SDS011;68834;53.152;17.962;2023-04-06T01:35:17;16.80;;;8.70;;
79367;SDS011;68834;53.152;17.962;2023-04-06T01:37:52;19.30;;;9.20;;
79367;SDS011;68834;53.152;17.962;2023-04-06T01:40:24;17.70;;;8.70;;
79367;SDS011;68834;53.152;17.962;2023-04-06T01:42:51;17.60;;;8.40;;
79367;SDS011;68834;53.152;17.962;2023-04-06T01:45:24;15.00;;;7.70;;
79367;SDS011;68834;53.152;17.962;2023-04-06T01:47:51;12.70;;;7.40;;
79367;SDS011;68834;53.152;17.962;2023-04-06T01:50:20;16.20;;;8.10;;
79367;SDS011;68834;53.152;17.962;2023-04-06T01:52:47;17.20;;;9.30;;
79367;SDS011;68834;53.152;17.962;2023-04-06T01:55:15;37.50;;;16.20;;
79367;SDS011;68834;53.152;17.962;2023-04-06T01:58:12;35.10;;;15.30;;
79367;SDS011;68834;53.152;17.962;2023-04-06T02:00:40;35.70;;;15.80;;
79367;SDS011;68834;53.152;17.962;2023-04-06T02:03:07;27.00;;;10.50;;
79367;SDS011;68834;53.152;17.962;2023-04-06T02:05:34;20.60;;;10.30;;
79367;SDS011;68834;53.152;17.962;2023-04-06T02:08:07;25.10;;;11.60;;
79367;SDS011;68834;53.152;17.962;2023-04-06T02:10:35;27.60;;;10.90;;
79367;SDS011;68834;53.152;17.962;2023-04-06T02:13:07;20.90;;;9.70;;
79367;SDS011;68834;53.152;17.962;2023-04-06T02:15:34;25.20;;;12.10;;
79367;SDS011;68834;53.152;17.962;2023-04-06T02:18:01;28.00;;;11.00;;
79367;SDS011;68834;53.152;17.962;2023-04-06T02:20:27;19.80;;;9.90;;
79367;SDS011;68834;53.152;17.962;2023-04-06T02:22:56;21.10;;;9.70;;
79367;SDS011;68834;53.152;17.962;2023-04-06T02:25:24;22.10;;;10.10;;
79367;SDS011;68834;53.152;17.962;2023-04-06T02:27:51;20.20;;;10.10;;
79367;SDS011;68834;53.152;17.962;2023-04-06T02:30:18;22.70;;;9.40;;
79367;SDS011;68834;53.152;17.962;2023-04-06T02:32:44;23.00;;;10.50;;
79367;SDS011;68834;53.152;17.962;2023-04-06T02:35:11;17.80;;;8.10;;
79367;SDS011;68834;53.152;17.962;2023-04-06T02:37:39;21.30;;;9.90;;
79367;SDS011;68834;53.152;17.962;2023-04-06T02:40:05;18.60;;;9.00;;
79367;SDS011;68834;53.152;17.962;2023-04-06T02:42:32;19.40;;;9.10;;
79367;SDS011;68834;53.152;17.962;2023-04-06T02:44:59;16.10;;;7.90;;
79367;SDS011;68834;53.152;17.962;2023-04-06T02:47:29;17.70;;;9.00;;
79367;SDS011;68834;53.152;17.962;2023-04-06T02:49:55;15.20;;;8.10;;
79367;SDS011;68834;53.152;17.962;2023-04-06T02:52:22;16.40;;;9.20;;
79367;SDS011;68834;53.152;17.962;2023-04-06T02:54:49;25.00;;;9.10;;
79367;SDS011;68834;53.152;17.962;2023-04-06T02:57:21;37.90;;;18.30;;
79367;SDS011;68834;53.152;17.962;2023-04-06T02:59:48;37.30;;;15.30;;
79367;SDS011;68834;53.152;17.962;2023-04-06T03:02:22;31.40;;;13.20;;
79367;SDS011;68834;53.152;17.962;2023-04-06T03:04:48;24.50;;;12.40;;
79367;SDS011;68834;53.152;17.962;2023-04-06T03:07:22;25.00;;;12.30;;
79367;SDS011;68834;53.152;17.962;2023-04-06T03:09:49;30.20;;;11.40;;
79367;SDS011;68834;53.152;17.962;2023-04-06T03:12:17;22.60;;;10.70;;
79367;SDS011;68834;53.152;17.962;2023-04-06T03:17:38;25.60;;;10.30;;
79367;SDS011;68834;53.152;17.962;2023-04-06T03:20:08;22.00;;;10.10;;
79367;SDS011;68834;53.152;17.962;2023-04-06T03:22:35;24.50;;;9.80;;
79367;SDS011;68834;53.152;17.962;2023-04-06T03:25:03;22.30;;;9.30;;
79367;SDS011;68834;53.152;17.962;2023-04-06T03:27:30;23.00;;;10.90;;
79367;SDS011;68834;53.152;17.962;2023-04-06T03:29:57;26.50;;;9.30;;
79367;SDS011;68834;53.152;17.962;2023-04-06T03:32:28;33.20;;;11.20;;
79367;SDS011;68834;53.152;17.962;2023-04-06T03:34:55;23.50;;;11.10;;
79367;SDS011;68834;53.152;17.962;2023-04-06T03:37:21;25.10;;;11.80;;
79367;SDS011;68834;53.152;17.962;2023-04-06T03:39:51;24.90;;;9.70;;
79367;SDS011;68834;53.152;17.962;2023-04-06T03:42:20;18.90;;;8.90;;
79367;SDS011;68834;53.152;17.962;2023-04-06T03:44:53;17.80;;;9.60;;
79367;SDS011;68834;53.152;17.962;2023-04-06T03:47:20;17.70;;;10.40;;
79367;SDS011;68834;53.152;17.962;2023-04-06T03:49:47;26.00;;;11.40;;
79367;SDS011;68834;53.152;17.962;2023-04-06T03:52:14;20.90;;;11.80;;
79367;SDS011;68834;53.152;17.962;2023-04-06T03:54:41;44.70;;;19.70;;
79367;SDS011;68834;53.152;17.962;2023-04-06T03:57:10;38.50;;;18.20;;
79367;SDS011;68834;53.152;17.962;2023-04-06T03:59:37;36.50;;;12.60;;
79367;SDS011;68834;53.152;17.962;2023-04-06T04:02:03;21.10;;;11.20;;
79367;SDS011;68834;53.152;17.962;2023-04-06T04:04:30;22.30;;;11.50;;
79367;SDS011;68834;53.152;17.962;2023-04-06T04:06:57;23.30;;;10.80;;
79367;SDS011;68834;53.152;17.962;2023-04-06T04:09:23;23.60;;;11.40;;
79367;SDS011;68834;53.152;17.962;2023-04-06T04:11:50;26.00;;;11.30;;
79367;SDS011;68834;53.152;17.962;2023-04-06T04:14:17;24.70;;;12.00;;
79367;SDS011;68834;53.152;17.962;2023-04-06T04:16:45;24.70;;;11.20;;
79367;SDS011;68834;53.152;17.962;2023-04-06T04:19:11;22.00;;;11.10;;
79367;SDS011;68834;53.152;17.962;2023-04-06T04:21:45;23.00;;;10.30;;
79367;SDS011;68834;53.152;17.962;2023-04-06T04:24:15;23.90;;;10.40;;
79367;SDS011;68834;53.152;17.962;2023-04-06T04:26:41;24.90;;;12.60;;
79367;SDS011;68834;53.152;17.962;2023-04-06T04:29:09;23.00;;;11.10;;
79367;SDS011;68834;53.152;17.962;2023-04-06T04:31:36;23.10;;;10.40;;
79367;SDS011;68834;53.152;17.962;2023-04-06T04:34:04;24.20;;;10.20;;
79367;SDS011;68834;53.152;17.962;2023-04-06T04:39:02;13.70;;;7.40;;
79367;SDS011;68834;53.152;17.962;2023-04-06T04:41:31;20.60;;;10.40;;
79367;SDS011;68834;53.152;17.962;2023-04-06T04:43:58;19.10;;;9.80;;
79367;SDS011;68834;53.152;17.962;2023-04-06T04:46:25;40.90;;;19.10;;
79367;SDS011;68834;53.152;17.962;2023-04-06T04:48:52;41.70;;;20.70;;
79367;SDS011;68834;53.152;17.962;2023-04-06T04:51:19;31.80;;;15.10;;
79367;SDS011;68834;53.152;17.962;2023-04-06T04:54:04;26.90;;;12.40;;
79367;SDS011;68834;53.152;17.962;2023-04-06T04:56:32;28.60;;;12.60;;
79367;SDS011;68834;53.152;17.962;2023-04-06T04:59:12;35.70;;;13.30;;
79367;SDS011;68834;53.152;17.962;2023-04-06T05:01:39;41.20;;;13.80;;
79367;SDS011;68834;53.152;17.962;2023-04-06T05:04:06;28.90;;;12.90;;
79367;SDS011;68834;53.152;17.962;2023-04-06T05:06:33;27.40;;;13.20;;
79367;SDS011;68834;53.152;17.962;2023-04-06T05:08:59;32.60;;;12.60;;
79367;SDS011;68834;53.152;17.962;2023-04-06T05:11:27;30.30;;;13.10;;
79367;SDS011;68834;53.152;17.962;2023-04-06T05:13:57;27.60;;;12.30;;
79367;SDS011;68834;53.152;17.962;2023-04-06T05:16:24;31.00;;;12.90;;
79367;SDS011;68834;53.152;17.962;2023-04-06T05:18:51;25.40;;;11.60;;
79367;SDS011;68834;53.152;17.962;2023-04-06T05:21:18;23.70;;;12.30;;
79367;SDS011;68834;53.152;17.962;2023-04-06T05:24:05;26.20;;;14.40;;
79367;SDS011;68834;53.152;17.962;2023-04-06T05:26:33;32.00;;;16.80;;
79367;SDS011;68834;53.152;17.962;2023-04-06T05:29:06;37.20;;;17.60;;
79367;SDS011;68834;53.152;17.962;2023-04-06T05:31:35;31.40;;;15.40;;
79367;SDS011;68834;53.152;17.962;2023-04-06T05:34:01;29.90;;;13.70;;
79367;SDS011;68834;53.152;17.962;2023-04-06T05:36:32;27.00;;;13.30;;
79367;SDS011;68834;53.152;17.962;2023-04-06T05:41:34;23.00;;;11.00;;
79367;SDS011;68834;53.152;17.962;2023-04-06T05:44:01;25.90;;;13.90;;
79367;SDS011;68834;53.152;17.962;2023-04-06T05:46:28;39.40;;;17.40;;
79367;SDS011;68834;53.152;17.962;2023-04-06T05:48:56;95.20;;;40.40;;
79367;SDS011;68834;53.152;17.962;2023-04-06T05:51:25;154.10;;;57.90;;
79367;SDS011;68834;53.152;17.962;2023-04-06T05:53:53;100.30;;;37.40;;
79367;SDS011;68834;53.152;17.962;2023-04-06T05:56:20;106.70;;;41.20;;
79367;SDS011;68834;53.152;17.962;2023-04-06T05:58:47;102.00;;;39.30;;
79367;SDS011;68834;53.152;17.962;2023-04-06T06:01:15;86.50;;;37.70;;
79367;SDS011;68834;53.152;17.962;2023-04-06T06:03:45;65.50;;;26.70;;
79367;SDS011;68834;53.152;17.962;2023-04-06T06:06:11;49.10;;;22.30;;
79367;SDS011;68834;53.152;17.962;2023-04-06T06:08:54;37.40;;;20.20;;
79367;SDS011;68834;53.152;17.962;2023-04-06T06:11:20;44.80;;;23.40;;
79367;SDS011;68834;53.152;17.962;2023-04-06T06:13:47;53.60;;;25.10;;
79367;SDS011;68834;53.152;17.962;2023-04-06T06:16:15;48.20;;;23.00;;
79367;SDS011;68834;53.152;17.962;2023-04-06T06:18:44;33.30;;;18.80;;
79367;SDS011;68834;53.152;17.962;2023-04-06T06:21:11;46.70;;;21.00;;
79367;SDS011;68834;53.152;17.962;2023-04-06T06:23:39;53.00;;;18.30;;
79367;SDS011;68834;53.152;17.962;2023-04-06T06:26:06;46.50;;;21.20;;
79367;SDS011;68834;53.152;17.962;2023-04-06T06:28:33;61.70;;;26.00;;
79367;SDS011;68834;53.152;17.962;2023-04-06T06:30:59;61.90;;;27.10;;
79367;SDS011;68834;53.152;17.962;2023-04-06T06:33:27;65.70;;;30.30;;
79367;SDS011;68834;53.152;17.962;2023-04-06T06:35:54;75.20;;;30.60;;
79367;SDS011;68834;53.152;17.962;2023-04-06T06:38:21;78.50;;;29.60;;
79367;SDS011;68834;53.152;17.962;2023-04-06T06:40:48;60.50;;;24.20;;
79367;SDS011;68834;53.152;17.962;2023-04-06T06:43:15;46.00;;;21.00;;
79367;SDS011;68834;53.152;17.962;2023-04-06T06:46:03;33.30;;;18.70;;
79367;SDS011;68834;53.152;17.962;2023-04-06T06:48:30;39.30;;;18.10;;
79367;SDS011;68834;53.152;17.962;2023-04-06T06:50:56;39.40;;;19.20;;
79367;SDS011;68834;53.152;17.962;2023-04-06T06:53:23;53.10;;;23.70;;
79367;SDS011;68834;53.152;17.962;2023-04-06T06:55:50;39.10;;;18.40;;
79367;SDS011;68834;53.152;17.962;2023-04-06T06:58:17;38.20;;;18.50;;
79367;SDS011;68834;53.152;17.962;2023-04-06T07:00:46;37.80;;;19.10;;
79367;SDS011;68834;53.152;17.962;2023-04-06T07:03:13;55.20;;;23.20;;
79367;SDS011;68834;53.152;17.962;2023-04-06T07:05:46;33.60;;;18.20;;
79367;SDS011;68834;53.152;17.962;2023-04-06T07:08:20;34.60;;;17.70;;
79367;SDS011;68834;53.152;17.962;2023-04-06T07:10:48;36.00;;;17.80;;
79367;SDS011;68834;53.152;17.962;2023-04-06T07:13:15;34.50;;;17.10;;
79367;SDS011;68834;53.152;17.962;2023-04-06T07:15:47;70.30;;;21.00;;
79367;SDS011;68834;53.152;17.962;2023-04-06T07:18:15;56.30;;;20.00;;
79367;SDS011;68834;53.152;17.962;2023-04-06T07:20:43;34.10;;;17.20;;
79367;SDS011;68834;53.152;17.962;2023-04-06T07:23:09;35.70;;;17.50;;
79367;SDS011;68834;53.152;17.962;2023-04-06T07:25:36;36.20;;;19.60;;
79367;SDS011;68834;53.152;17.962;2023-04-06T07:28:03;36.80;;;18.30;;
79367;SDS011;68834;53.152;17.962;2023-04-06T07:30:31;41.90;;;17.80;;
79367;SDS011;68834;53.152;17.962;2023-04-06T07:32:59;40.90;;;18.30;;
79367;SDS011;68834;53.152;17.962;2023-04-06T07:35:26;67.00;;;22.60;;
79367;SDS011;68834;53.152;17.962;2023-04-06T07:37:54;33.10;;;16.20;;
79367;SDS011;68834;53.152;17.962;2023-04-06T07:40:21;36.60;;;16.00;;
79367;SDS011;68834;53.152;17.962;2023-04-06T07:42:48;64.00;;;18.60;;
79367;SDS011;68834;53.152;17.962;2023-04-06T07:45:15;27.70;;;13.90;;
79367;SDS011;68834;53.152;17.962;2023-04-06T07:47:42;31.20;;;16.80;;
79367;SDS011;68834;53.152;17.962;2023-04-06T07:50:09;29.10;;;15.30;;
79367;SDS011;68834;53.152;17.962;2023-04-06T07:52:38;33.40;;;13.90;;
79367;SDS011;68834;53.152;17.962;2023-04-06T07:55:05;20.10;;;11.30;;
79367;SDS011;68834;53.152;17.962;2023-04-06T07:57:32;22.50;;;11.30;;
79367;SDS011;68834;53.152;17.962;2023-04-06T07:59:59;28.20;;;12.00;;
79367;SDS011;68834;53.152;17.962;2023-04-06T08:02:25;16.90;;;8.80;;
79367;SDS011;68834;53.152;17.962;2023-04-06T08:04:52;20.40;;;9.40;;
79367;SDS011;68834;53.152;17.962;2023-04-06T08:07:19;18.70;;;9.50;;
79367;SDS011;68834;53.152;17.962;2023-04-06T08:09:46;12.50;;;7.00;;
79367;SDS011;68834;53.152;17.962;2023-04-06T08:12:13;10.70;;;6.00;;
79367;SDS011;68834;53.152;17.962;2023-04-06T08:14:40;11.00;;;5.30;;
79367;SDS011;68834;53.152;17.962;2023-04-06T08:17:06;16.70;;;7.10;;
79367;SDS011;68834;53.152;17.962;2023-04-06T08:19:33;15.10;;;5.50;;
79367;SDS011;68834;53.152;17.962;2023-04-06T08:22:00;19.40;;;5.80;;
79367;SDS011;68834;53.152;17.962;2023-04-06T08:24:26;12.20;;;5.50;;
79367;SDS011;68834;53.152;17.962;2023-04-06T08:26:53;20.70;;;5.40;;
79367;SDS011;68834;53.152;17.962;2023-04-06T08:29:19;8.00;;;4.70;;
79367;SDS011;68834;53.152;17.962;2023-04-06T08:31:46;10.90;;;5.20;;
79367;SDS011;68834;53.152;17.962;2023-04-06T08:34:13;17.50;;;6.20;;
79367;SDS011;68834;53.152;17.962;2023-04-06T08:36:39;6.60;;;4.40;;
79367;SDS011;68834;53.152;17.962;2023-04-06T08:39:06;12.50;;;5.10;;
79367;SDS011;68834;53.152;17.962;2023-04-06T08:41:34;45.60;;;8.00;;
79367;SDS011;68834;53.152;17.962;2023-04-06T08:44:01;10.50;;;6.00;;
79367;SDS011;68834;53.152;17.962;2023-04-06T08:46:29;22.10;;;6.00;;
79367;SDS011;68834;53.152;17.962;2023-04-06T08:49:00;12.00;;;5.00;;
79367;SDS011;68834;53.152;17.962;2023-04-06T08:51:29;7.70;;;4.40;;
79367;SDS011;68834;53.152;17.962;2023-04-06T08:53:59;10.00;;;5.40;;
79367;SDS011;68834;53.152;17.962;2023-04-06T08:56:26;10.70;;;5.10;;
79367;SDS011;68834;53.152;17.962;2023-04-06T09:01:22;7.30;;;3.80;;
79367;SDS011;68834;53.152;17.962;2023-04-06T09:03:54;9.90;;;4.80;;
79367;SDS011;68834;53.152;17.962;2023-04-06T09:06:24;6.60;;;3.40;;
79367;SDS011;68834;53.152;17.962;2023-04-06T09:08:53;5.80;;;3.60;;
79367;SDS011;68834;53.152;17.962;2023-04-06T09:13:48;10.60;;;5.20;;
79367;SDS011;68834;53.152;17.962;2023-04-06T09:16:17;28.30;;;5.80;;
79367;SDS011;68834;53.152;17.962;2023-04-06T09:18:44;8.50;;;4.90;;
79367;SDS011;68834;53.152;17.962;2023-04-06T09:21:11;11.90;;;6.50;;
79367;SDS011;68834;53.152;17.962;2023-04-06T09:23:38;7.20;;;4.30;;
79367;SDS011;68834;53.152;17.962;2023-04-06T09:26:09;7.30;;;4.30;;
79367;SDS011;68834;53.152;17.962;2023-04-06T09:31:15;10.70;;;5.20;;
79367;SDS011;68834;53.152;17.962;2023-04-06T09:33:44;7.00;;;4.90;;
79367;SDS011;68834;53.152;17.962;2023-04-06T09:36:11;9.30;;;6.60;;
79367;SDS011;68834;53.152;17.962;2023-04-06T09:38:52;10.90;;;6.60;;
79367;SDS011;68834;53.152;17.962;2023-04-06T09:41:23;8.10;;;4.90;;
79367;SDS011;68834;53.152;17.962;2023-04-06T09:43:51;6.70;;;4.30;;
79367;SDS011;68834;53.152;17.962;2023-04-06T09:46:27;6.50;;;4.90;;
79367;SDS011;68834;53.152;17.962;2023-04-06T09:48:57;7.20;;;4.50;;
79367;SDS011;68834;53.152;17.962;2023-04-06T09:53:52;9.10;;;5.40;;
79367;SDS011;68834;53.152;17.962;2023-04-06T09:56:22;5.70;;;4.10;;
79367;SDS011;68834;53.152;17.962;2023-04-06T09:58:52;14.70;;;5.70;;
79367;SDS011;68834;53.152;17.962;2023-04-06T10:01:23;24.70;;;5.30;;
79367;SDS011;68834;53.152;17.962;2023-04-06T10:04:00;6.20;;;4.50;;
79367;SDS011;68834;53.152;17.962;2023-04-06T10:06:39;9.20;;;4.20;;
79367;SDS011;68834;53.152;17.962;2023-04-06T10:09:06;5.70;;;4.30;;
79367;SDS011;68834;53.152;17.962;2023-04-06T10:11:34;9.30;;;4.80;;
79367;SDS011;68834;53.152;17.962;2023-04-06T10:14:02;6.90;;;4.30;;
79367;SDS011;68834;53.152;17.962;2023-04-06T10:16:28;10.50;;;4.70;;
79367;SDS011;68834;53.152;17.962;2023-04-06T10:19:05;6.50;;;4.90;;
79367;SDS011;68834;53.152;17.962;2023-04-06T10:21:39;13.50;;;4.90;;
79367;SDS011;68834;53.152;17.962;2023-04-06T10:24:08;9.90;;;4.60;;
79367;SDS011;68834;53.152;17.962;2023-04-06T10:26:39;15.70;;;5.20;;
79367;SDS011;68834;53.152;17.962;2023-04-06T10:29:06;62.80;;;7.40;;
79367;SDS011;68834;53.152;17.962;2023-04-06T10:31:33;13.10;;;4.30;;
79367;SDS011;68834;53.152;17.962;2023-04-06T10:34:08;18.30;;;4.80;;
79367;SDS011;68834;53.152;17.962;2023-04-06T10:36:34;10.20;;;4.70;;
79367;SDS011;68834;53.152;17.962;2023-04-06T10:39:03;14.80;;;4.50;;
79367;SDS011;68834;53.152;17.962;2023-04-06T10:41:36;19.20;;;4.50;;
79367;SDS011;68834;53.152;17.962;2023-04-06T10:44:20;25.20;;;5.60;;
79367;SDS011;68834;53.152;17.962;2023-04-06T10:46:58;5.30;;;3.70;;
79367;SDS011;68834;53.152;17.962;2023-04-06T10:49:29;9.10;;;6.00;;
79367;SDS011;68834;53.152;17.962;2023-04-06T10:51:56;4.90;;;3.70;;
79367;SDS011;68834;53.152;17.962;2023-04-06T10:54:24;7.20;;;5.00;;
79367;SDS011;68834;53.152;17.962;2023-04-06T10:56:51;6.40;;;3.70;;
79367;SDS011;68834;53.152;17.962;2023-04-06T10:59:21;9.10;;;3.90;;
79367;SDS011;68834;53.152;17.962;2023-04-06T11:01:48;7.30;;;4.50;;
79367;SDS011;68834;53.152;17.962;2023-04-06T11:04:19;6.50;;;4.80;;
79367;SDS011;68834;53.152;17.962;2023-04-06T11:06:47;14.40;;;5.00;;
79367;SDS011;68834;53.152;17.962;2023-04-06T11:09:24;9.30;;;4.30;;
79367;SDS011;68834;53.152;17.962;2023-04-06T11:11:55;5.90;;;3.70;;
79367;SDS011;68834;53.152;17.962;2023-04-06T11:14:23;7.00;;;4.50;;
79367;SDS011;68834;53.152;17.962;2023-04-06T11:16:49;14.20;;;4.70;;
79367;SDS011;68834;53.152;17.962;2023-04-06T11:19:16;6.70;;;4.00;;
79367;SDS011;68834;53.152;17.962;2023-04-06T11:24:15;6.60;;;4.80;;
79367;SDS011;68834;53.152;17.962;2023-04-06T11:29:12;8.10;;;4.70;;
79367;SDS011;68834;53.152;17.962;2023-04-06T11:31:40;8.90;;;4.50;;
79367;SDS011;68834;53.152;17.962;2023-04-06T11:34:21;14.80;;;4.30;;
79367;SDS011;68834;53.152;17.962;2023-04-06T11:36:54;7.00;;;3.80;;
79367;SDS011;68834;53.152;17.962;2023-04-06T11:39:26;5.40;;;3.80;;
79367;SDS011;68834;53.152;17.962;2023-04-06T11:41:54;7.40;;;3.60;;
79367;SDS011;68834;53.152;17.962;2023-04-06T11:44:34;10.00;;;4.30;;
79367;SDS011;68834;53.152;17.962;2023-04-06T11:47:02;8.90;;;4.90;;
79367;SDS011;68834;53.152;17.962;2023-04-06T11:49:30;6.50;;;4.30;;
79367;SDS011;68834;53.152;17.962;2023-04-06T11:51:59;5.40;;;3.70;;
79367;SDS011;68834;53.152;17.962;2023-04-06T11:56:57;11.60;;;3.80;;
79367;SDS011;68834;53.152;17.962;2023-04-06T11:59:24;6.60;;;4.20;;
79367;SDS011;68834;53.152;17.962;2023-04-06T12:01:51;11.70;;;10.70;;
79367;SDS011;68834;53.152;17.962;2023-04-06T12:04:19;5.40;;;4.00;;
79367;SDS011;68834;53.152;17.962;2023-04-06T12:06:46;7.90;;;5.20;;
79367;SDS011;68834;53.152;17.962;2023-04-06T12:09:14;4.30;;;3.50;;
79367;SDS011;68834;53.152;17.962;2023-04-06T12:11:43;5.60;;;4.80;;
79367;SDS011;68834;53.152;17.962;2023-04-06T12:16:37;9.20;;;3.60;;
79367;SDS011;68834;53.152;17.962;2023-04-06T12:19:04;8.20;;;4.60;;
79367;SDS011;68834;53.152;17.962;2023-04-06T12:21:33;8.20;;;3.60;;
79367;SDS011;68834;53.152;17.962;2023-04-06T12:24:01;6.80;;;3.70;;
79367;SDS011;68834;53.152;17.962;2023-04-06T12:26:28;6.80;;;3.90;;
79367;SDS011;68834;53.152;17.962;2023-04-06T12:28:55;9.50;;;4.50;;
79367;SDS011;68834;53.152;17.962;2023-04-06T12:31:22;24.60;;;5.40;;
79367;SDS011;68834;53.152;17.962;2023-04-06T12:33:51;6.30;;;4.50;;
79367;SDS011;68834;53.152;17.962;2023-04-06T12:36:19;5.10;;;3.60;;
79367;SDS011;68834;53.152;17.962;2023-04-06T12:38:46;8.40;;;3.80;;
79367;SDS011;68834;53.152;17.962;2023-04-06T12:41:14;7.10;;;4.60;;
79367;SDS011;68834;53.152;17.962;2023-04-06T12:43:41;12.70;;;4.30;;
79367;SDS011;68834;53.152;17.962;2023-04-06T12:46:08;6.00;;;3.60;;
79367;SDS011;68834;53.152;17.962;2023-04-06T12:48:35;36.40;;;6.00;;
79367;SDS011;68834;53.152;17.962;2023-04-06T12:51:03;6.90;;;3.70;;
79367;SDS011;68834;53.152;17.962;2023-04-06T12:53:33;5.40;;;3.60;;
79367;SDS011;68834;53.152;17.962;2023-04-06T12:56:00;9.70;;;3.80;;
79367;SDS011;68834;53.152;17.962;2023-04-06T12:58:28;6.90;;;3.70;;
79367;SDS011;68834;53.152;17.962;2023-04-06T13:00:57;7.90;;;3.70;;
79367;SDS011;68834;53.152;17.962;2023-04-06T13:03:28;5.40;;;3.80;;
79367;SDS011;68834;53.152;17.962;2023-04-06T13:05:56;43.00;;;6.60;;
79367;SDS011;68834;53.152;17.962;2023-04-06T13:08:22;5.80;;;4.00;;
79367;SDS011;68834;53.152;17.962;2023-04-06T13:10:49;5.60;;;3.50;;
79367;SDS011;68834;53.152;17.962;2023-04-06T13:13:22;4.70;;;3.30;;
79367;SDS011;68834;53.152;17.962;2023-04-06T13:15:51;7.60;;;4.10;;
79367;SDS011;68834;53.152;17.962;2023-04-06T13:18:18;16.50;;;4.60;;
79367;SDS011;68834;53.152;17.962;2023-04-06T13:20:46;6.40;;;3.50;;
79367;SDS011;68834;53.152;17.962;2023-04-06T13:23:14;5.60;;;4.40;;
79367;SDS011;68834;53.152;17.962;2023-04-06T13:28:08;15.10;;;5.00;;
79367;SDS011;68834;53.152;17.962;2023-04-06T13:30:36;9.40;;;5.70;;
79367;SDS011;68834;53.152;17.962;2023-04-06T13:33:02;9.80;;;5.10;;
79367;SDS011;68834;53.152;17.962;2023-04-06T13:35:30;9.30;;;5.30;;
79367;SDS011;68834;53.152;17.962;2023-04-06T13:37:57;10.40;;;4.70;;
79367;SDS011;68834;53.152;17.962;2023-04-06T13:40:24;9.10;;;5.80;;
79367;SDS011;68834;53.152;17.962;2023-04-06T13:42:51;9.80;;;6.50;;
79367;SDS011;68834;53.152;17.962;2023-04-06T13:45:17;17.20;;;6.30;;
79367;SDS011;68834;53.152;17.962;2023-04-06T13:47:44;9.90;;;5.50;;
79367;SDS011;68834;53.152;17.962;2023-04-06T13:52:38;11.70;;;4.90;;
79367;SDS011;68834;53.152;17.962;2023-04-06T13:55:05;6.90;;;4.30;;
79367;SDS011;68834;53.152;17.962;2023-04-06T13:57:31;8.20;;;5.00;;
79367;SDS011;68834;53.152;17.962;2023-04-06T13:59:58;9.20;;;5.00;;
79367;SDS011;68834;53.152;17.962;2023-04-06T14:02:25;7.90;;;4.80;;
79367;SDS011;68834;53.152;17.962;2023-04-06T14:04:53;7.10;;;4.70;;
79367;SDS011;68834;53.152;17.962;2023-04-06T14:07:20;7.50;;;4.30;;
79367;SDS011;68834;53.152;17.962;2023-04-06T14:09:48;7.60;;;4.40;;
79367;SDS011;68834;53.152;17.962;2023-04-06T14:12:14;7.70;;;4.30;;
79367;SDS011;68834;53.152;17.962;2023-04-06T14:14:41;8.60;;;5.10;;
79367;SDS011;68834;53.152;17.962;2023-04-06T14:17:08;21.80;;;5.70;;
79367;SDS011;68834;53.152;17.962;2023-04-06T14:19:34;7.50;;;5.50;;
79367;SDS011;68834;53.152;17.962;2023-04-06T14:22:02;12.60;;;5.40;;
79367;SDS011;68834;53.152;17.962;2023-04-06T14:24:28;16.40;;;5.80;;
79367;SDS011;68834;53.152;17.962;2023-04-06T14:26:55;9.40;;;5.30;;
79367;SDS011;68834;53.152;17.962;2023-04-06T14:29:23;10.60;;;5.20;;
79367;SDS011;68834;53.152;17.962;2023-04-06T14:31:49;12.50;;;5.40;;
79367;SDS011;68834;53.152;17.962;2023-04-06T14:34:16;8.20;;;4.90;;
79367;SDS011;68834;53.152;17.962;2023-04-06T14:36:43;14.00;;;5.30;;
79367;SDS011;68834;53.152;17.962;2023-04-06T14:39:10;10.60;;;5.80;;
79367;SDS011;68834;53.152;17.962;2023-04-06T14:41:36;19.20;;;6.90;;
79367;SDS011;68834;53.152;17.962;2023-04-06T14:44:03;13.10;;;4.90;;
79367;SDS011;68834;53.152;17.962;2023-04-06T14:46:31;16.00;;;7.40;;
79367;SDS011;68834;53.152;17.962;2023-04-06T14:48:57;8.40;;;5.40;;
79367;SDS011;68834;53.152;17.962;2023-04-06T14:51:25;8.70;;;5.10;;
79367;SDS011;68834;53.152;17.962;2023-04-06T14:53:53;6.40;;;4.30;;
79367;SDS011;68834;53.152;17.962;2023-04-06T14:58:50;6.10;;;4.60;;
79367;SDS011;68834;53.152;17.962;2023-04-06T15:01:21;8.00;;;4.70;;